Terminal Aerodrome Forecast
Issued by NWS

Home | Current Version | Previous Version | Text Only | Print | Product List | Glossary On
Versions: 1 2 3 4 5 6 7 8 9 10 11 12 13 14 15 16 17 18
000
FTUS43 KPAH 282300
TAFCGI
TAF
KCGI 282326Z 2900/2924 VRB03KT P6SM BKN100 OVC250
     FM290300 35003KT P6SM SCT250
     FM291600 32009KT P6SM SKC=

USA.gov is the U.S. government's official web portal to all federal, state and local government web resources and services.